Terminal Aerodrome Forecast
Issued by NWS Sterling, VA

Home | Current Version | Previous Version | Text Only | Print | Product List | Glossary On
Versions: 1 2 3 4 5 6 7 8 9 10 11 12 13 14 15 16 17 18 19 20 21 22 23 24 25 26 27 28 29 30 31
000
FTUS41 KLWX 042100 AAD
TAFDCA
TAF AMD
KDCA 042100Z 0421/0518 VRB04KT 5SM -TSRA OVC030CB
      TEMPO 0421/0422 VRB10KT 2SM TSRA OVC025CB
     FM042200 33004KT P6SM BKN080
     FM050100 03004KT P6SM BKN150
     FM051000 VRB03KT 3SM BR BKN250
     FM051300 VRB03KT P6SM BKN250=

USA.gov is the U.S. government's official web portal to all federal, state and local government web resources and services.